createdAt,value
2019-06-27T00:01:18.537Z,22.23
2019-06-27T00:03:46.762Z,22.16
2019-06-27T00:06:14.705Z,22.13
2019-06-27T00:08:43.685Z,22.17
2019-06-27T00:11:11.703Z,22.12
2019-06-27T00:13:39.878Z,22.08
2019-06-27T00:16:08.038Z,22.04
2019-06-27T00:18:36.122Z,22.00
2019-06-27T00:21:04.166Z,21.98
2019-06-27T00:23:31.941Z,21.97
2019-06-27T00:25:59.899Z,21.92
2019-06-27T00:28:27.986Z,21.89
2019-06-27T00:30:56.077Z,21.84
2019-06-27T00:33:23.660Z,21.80
2019-06-27T00:35:51.210Z,21.78
2019-06-27T00:38:18.843Z,21.80
2019-06-27T00:40:46.471Z,21.80
2019-06-27T00:43:14.004Z,21.86
2019-06-27T00:45:41.642Z,21.80
2019-06-27T00:48:09.179Z,21.76
2019-06-27T00:50:36.773Z,21.72
2019-06-27T00:53:04.401Z,21.65
2019-06-27T00:55:32.058Z,21.62
2019-06-27T00:58:00.251Z,21.58
2019-06-27T01:00:28.204Z,21.54
2019-06-27T01:02:56.564Z,21.55
2019-06-27T01:05:24.477Z,21.66
2019-06-27T01:07:52.474Z,21.67
2019-06-27T01:10:20.656Z,21.68
2019-06-27T01:12:48.590Z,21.63
2019-06-27T01:15:18.629Z,21.58
2019-06-27T01:17:46.767Z,21.51
2019-06-27T01:20:14.911Z,21.42
2019-06-27T01:22:42.798Z,21.39
2019-06-27T01:25:10.806Z,21.41
2019-06-27T01:27:38.685Z,21.36
2019-06-27T01:30:07.236Z,21.35
2019-06-27T01:32:35.176Z,21.35
2019-06-27T01:35:04.290Z,21.38
2019-06-27T01:37:32.546Z,21.48
2019-06-27T01:40:00.722Z,21.49
2019-06-27T01:42:28.763Z,21.48
2019-06-27T01:45:04.832Z,21.46
2019-06-27T01:47:32.829Z,21.44
2019-06-27T01:50:00.999Z,21.37
2019-06-27T01:52:28.999Z,21.39
2019-06-27T01:54:57.237Z,21.37
2019-06-27T01:57:25.443Z,21.31
2019-06-27T01:59:53.528Z,21.25
2019-06-27T02:02:21.611Z,21.21
2019-06-27T02:04:49.508Z,21.23
2019-06-27T02:07:17.648Z,21.18
2019-06-27T02:09:45.720Z,21.19
2019-06-27T02:12:13.774Z,21.18
2019-06-27T02:14:42.002Z,21.16
2019-06-27T02:17:09.807Z,21.21
2019-06-27T02:19:37.735Z,21.18
2019-06-27T02:22:06.087Z,21.15
2019-06-27T02:24:35.172Z,21.13
2019-06-27T02:27:04.655Z,21.08
2019-06-27T02:29:32.681Z,21.02
2019-06-27T02:32:01.101Z,20.97
2019-06-27T02:34:29.461Z,20.95
2019-06-27T02:36:57.556Z,20.92
2019-06-27T02:39:25.522Z,20.89
2019-06-27T02:41:53.399Z,20.86
2019-06-27T02:44:21.359Z,20.90
2019-06-27T02:46:49.429Z,20.85
2019-06-27T02:49:17.289Z,20.98
2019-06-27T02:51:46.494Z,20.97
2019-06-27T02:54:14.001Z,20.87
2019-06-27T02:56:41.613Z,20.84
2019-06-27T02:59:09.641Z,20.73
2019-06-27T03:01:37.663Z,20.66
2019-06-27T03:04:05.496Z,20.66
2019-06-27T03:06:33.595Z,20.65
2019-06-27T03:09:01.565Z,20.61
2019-06-27T03:11:31.277Z,20.61
2019-06-27T03:13:59.582Z,20.61
2019-06-27T03:16:27.696Z,20.62
2019-06-27T03:18:55.697Z,20.64
2019-06-27T03:21:23.577Z,20.64
2019-06-27T03:23:51.663Z,20.68
2019-06-27T03:26:19.617Z,20.67
2019-06-27T03:28:52.669Z,20.69
2019-06-27T03:31:17.730Z,20.67
2019-06-27T03:33:45.336Z,20.65
2019-06-27T03:36:14.100Z,20.69
2019-06-27T03:38:41.834Z,20.71
2019-06-27T03:41:09.734Z,20.76
2019-06-27T03:43:37.880Z,20.75
2019-06-27T03:46:06.294Z,20.73
2019-06-27T03:48:34.466Z,20.75
2019-06-27T03:51:02.476Z,20.76
2019-06-27T03:53:30.820Z,20.82
2019-06-27T03:55:58.416Z,20.85
2019-06-27T03:58:26.020Z,20.89
2019-06-27T04:00:53.954Z,20.96
2019-06-27T04:03:21.837Z,20.99
2019-06-27T04:05:49.808Z,21.05
2019-06-27T04:08:17.853Z,21.12
2019-06-27T04:10:45.852Z,21.16
2019-06-27T04:13:15.115Z,21.34
2019-06-27T04:15:43.034Z,21.34
2019-06-27T04:18:11.017Z,21.38
2019-06-27T04:20:39.348Z,21.48
2019-06-27T04:23:06.877Z,21.52
2019-06-27T04:25:34.513Z,21.60
2019-06-27T04:28:02.865Z,21.68
2019-06-27T04:30:30.946Z,21.62
2019-06-27T04:32:58.884Z,21.81
2019-06-27T04:35:26.421Z,21.93
2019-06-27T04:37:54.048Z,22.06
2019-06-27T04:40:22.027Z,22.17
2019-06-27T04:42:49.594Z,22.27
2019-06-27T04:45:18.129Z,22.40
2019-06-27T04:47:45.830Z,22.44
2019-06-27T04:50:13.476Z,22.59
2019-06-27T04:52:41.207Z,22.74
2019-06-27T04:55:08.975Z,22.89
2019-06-27T04:57:36.554Z,22.97
2019-06-27T05:00:04.673Z,23.00
2019-06-27T05:02:32.168Z,23.00
2019-06-27T05:04:59.748Z,23.10
2019-06-27T05:07:27.306Z,23.23
2019-06-27T05:09:55.040Z,23.39
2019-06-27T05:12:22.741Z,23.39
2019-06-27T05:14:50.497Z,23.44
2019-06-27T05:17:18.137Z,23.56
2019-06-27T05:19:45.686Z,23.66
2019-06-27T05:22:13.296Z,23.74
2019-06-27T05:24:40.963Z,23.79
2019-06-27T05:27:08.701Z,23.81
2019-06-27T05:29:36.258Z,23.96
2019-06-27T05:32:03.956Z,24.11
2019-06-27T05:34:31.535Z,24.14
2019-06-27T05:36:59.196Z,24.29
2019-06-27T05:39:26.780Z,24.41
2019-06-27T05:41:54.382Z,24.55
2019-06-27T05:44:21.952Z,24.57
2019-06-27T05:46:49.630Z,24.69
2019-06-27T05:49:18.253Z,24.76
2019-06-27T05:51:45.804Z,24.80
2019-06-27T05:54:13.362Z,24.93
2019-06-27T05:56:40.903Z,24.96
2019-06-27T05:59:08.485Z,25.11
2019-06-27T06:01:36.161Z,25.29
2019-06-27T06:04:03.747Z,25.48
2019-06-27T06:06:31.293Z,25.58
2019-06-27T06:08:58.907Z,25.71
2019-06-27T06:11:26.558Z,25.83
2019-06-27T06:13:54.114Z,25.92
2019-06-27T06:16:21.754Z,26.03
2019-06-27T06:18:49.322Z,26.20
2019-06-27T06:21:16.941Z,26.33
2019-06-27T06:23:44.508Z,26.44
2019-06-27T06:26:12.129Z,26.52
2019-06-27T06:28:41.888Z,26.56
2019-06-27T06:31:09.434Z,26.56
2019-06-27T06:33:37.088Z,26.76
2019-06-27T06:36:06.307Z,26.94
2019-06-27T06:38:33.976Z,27.14
2019-06-27T06:41:01.596Z,27.30
2019-06-27T06:43:29.150Z,27.47
2019-06-27T06:45:57.361Z,27.67
2019-06-27T06:48:24.962Z,27.86
2019-06-27T06:50:52.524Z,28.07
2019-06-27T06:53:20.081Z,28.26
2019-06-27T06:55:47.627Z,28.38
2019-06-27T06:58:15.210Z,28.49
2019-06-27T07:00:42.782Z,28.66
2019-06-27T07:03:10.490Z,28.94
2019-06-27T07:05:38.131Z,29.10
2019-06-27T07:08:05.828Z,29.19
2019-06-27T07:10:33.447Z,29.14
2019-06-27T07:13:00.974Z,29.32
2019-06-27T07:15:28.513Z,29.52
2019-06-27T07:17:56.144Z,29.71
2019-06-27T07:20:23.637Z,30.02
2019-06-27T07:22:51.248Z,30.11
2019-06-27T07:25:18.833Z,30.09
2019-06-27T07:27:46.430Z,30.24
2019-06-27T07:30:15.074Z,30.49
2019-06-27T07:32:42.727Z,30.66
2019-06-27T07:35:10.615Z,30.82
2019-06-27T07:37:38.220Z,31.03
2019-06-27T07:40:07.322Z,31.14
2019-06-27T07:42:35.268Z,31.29
2019-06-27T07:45:02.952Z,31.41
2019-06-27T07:47:30.673Z,31.57
2019-06-27T07:49:58.295Z,31.73
2019-06-27T07:52:25.804Z,31.84
2019-06-27T07:54:53.521Z,31.86
2019-06-27T07:57:21.117Z,31.93
2019-06-27T07:59:48.747Z,32.07
2019-06-27T08:02:16.536Z,32.18
2019-06-27T08:04:44.474Z,32.42
2019-06-27T08:07:13.090Z,32.46
2019-06-27T08:09:40.712Z,32.67
2019-06-27T08:12:08.240Z,32.84
2019-06-27T08:14:35.786Z,32.97
2019-06-27T08:17:03.360Z,32.98
2019-06-27T08:19:30.916Z,33.24
2019-06-27T08:21:58.430Z,33.57
2019-06-27T08:24:26.074Z,33.76
2019-06-27T08:26:53.665Z,33.85
2019-06-27T08:29:21.436Z,33.93
2019-06-27T08:31:51.878Z,34.16
2019-06-27T08:34:18.795Z,34.28
2019-06-27T08:36:46.454Z,34.52
2019-06-27T08:39:14.190Z,34.51
2019-06-27T08:41:42.010Z,34.59
2019-06-27T08:44:09.758Z,34.67
2019-06-27T08:46:37.381Z,34.83
2019-06-27T08:49:04.973Z,34.91
2019-06-27T08:51:32.651Z,35.05
2019-06-27T08:54:00.236Z,35.36
2019-06-27T08:56:27.967Z,35.42
2019-06-27T08:58:55.491Z,35.70
2019-06-27T09:01:23.076Z,35.79
2019-06-27T09:03:50.663Z,36.06
2019-06-27T09:06:21.002Z,36.19
2019-06-27T09:08:47.803Z,36.58
2019-06-27T09:11:15.365Z,36.61
2019-06-27T09:13:42.921Z,36.75
2019-06-27T09:16:10.505Z,36.95
2019-06-27T09:18:38.073Z,36.91
2019-06-27T09:21:05.673Z,37.03
2019-06-27T09:23:33.358Z,37.11
2019-06-27T09:26:00.975Z,37.17
2019-06-27T09:28:28.662Z,37.39
2019-06-27T09:30:56.219Z,37.52
2019-06-27T09:33:23.860Z,37.41
2019-06-27T09:35:51.401Z,37.58
2019-06-27T09:38:19.035Z,37.67
2019-06-27T09:40:46.684Z,37.93
2019-06-27T09:43:14.291Z,38.27
2019-06-27T09:45:41.850Z,38.28
2019-06-27T09:48:09.452Z,38.29
2019-06-27T09:50:37.005Z,38.56
2019-06-27T09:53:04.580Z,38.38
2019-06-27T09:55:32.163Z,38.29
2019-06-27T09:58:00.079Z,38.31
2019-06-27T10:00:28.058Z,38.87
2019-06-27T10:02:55.659Z,38.80
2019-06-27T10:05:23.427Z,39.14
2019-06-27T10:07:51.008Z,39.33
2019-06-27T10:10:18.657Z,38.93
2019-06-27T10:12:47.250Z,39.22
2019-06-27T10:15:15.114Z,39.30
2019-06-27T10:17:42.681Z,39.22
2019-06-27T10:20:10.417Z,39.44
2019-06-27T10:22:38.034Z,39.30
2019-06-27T10:25:05.881Z,39.74
2019-06-27T10:27:33.540Z,40.11
2019-06-27T10:30:01.142Z,40.13
2019-06-27T10:32:28.729Z,40.11
2019-06-27T10:34:56.320Z,40.03
2019-06-27T10:37:23.937Z,40.16
2019-06-27T10:39:51.514Z,40.19
2019-06-27T10:42:19.045Z,40.15
2019-06-27T10:44:46.681Z,40.18
2019-06-27T10:47:14.198Z,40.34
2019-06-27T10:49:41.835Z,40.20
2019-06-27T10:52:09.386Z,40.21
2019-06-27T10:54:36.962Z,40.49
2019-06-27T10:57:04.548Z,40.69
2019-06-27T10:59:32.210Z,40.83
2019-06-27T11:01:59.745Z,40.93
2019-06-27T11:04:28.434Z,40.91
2019-06-27T11:06:55.965Z,40.87
2019-06-27T11:09:23.601Z,40.78
2019-06-27T11:11:51.132Z,41.07
2019-06-27T11:14:19.334Z,41.03
2019-06-27T11:16:47.070Z,40.73
2019-06-27T11:19:14.700Z,40.77
2019-06-27T11:21:42.283Z,40.62
2019-06-27T11:24:10.059Z,40.71
2019-06-27T11:26:37.683Z,40.96
2019-06-27T11:29:05.365Z,41.25
2019-06-27T11:31:32.971Z,41.29
2019-06-27T11:34:00.590Z,41.20
2019-06-27T11:36:28.250Z,41.25
2019-06-27T11:38:57.232Z,41.53
2019-06-27T11:41:24.765Z,41.56
2019-06-27T11:43:52.377Z,41.24
2019-06-27T11:46:19.966Z,41.22
2019-06-27T11:48:48.670Z,41.16
2019-06-27T11:51:16.197Z,41.11
2019-06-27T11:53:43.933Z,41.28
2019-06-27T11:56:11.444Z,41.47
2019-06-27T11:58:39.083Z,41.52
2019-06-27T12:01:07.563Z,41.32
2019-06-27T12:03:48.412Z,41.05
2019-06-27T12:06:04.786Z,40.97
2019-06-27T12:08:32.489Z,40.96
2019-06-27T12:11:00.125Z,41.01
2019-06-27T12:13:27.739Z,40.97
2019-06-27T12:15:55.362Z,40.75
2019-06-27T12:18:22.953Z,40.61
2019-06-27T12:20:50.699Z,40.53
2019-06-27T12:23:18.244Z,40.60
2019-06-27T12:25:45.828Z,40.73
2019-06-27T12:28:13.522Z,40.58
2019-06-27T12:30:41.187Z,40.62
2019-06-27T12:33:08.723Z,40.81
2019-06-27T12:35:36.263Z,40.83
2019-06-27T12:38:03.843Z,40.50
2019-06-27T12:40:31.483Z,40.15
2019-06-27T12:42:59.099Z,40.13
2019-06-27T12:45:26.616Z,39.99
2019-06-27T12:47:54.215Z,40.22
2019-06-27T12:50:21.920Z,40.49
2019-06-27T12:52:49.485Z,40.61
2019-06-27T12:55:17.143Z,40.55
2019-06-27T12:57:44.712Z,40.53
2019-06-27T13:00:12.662Z,40.48
2019-06-27T13:02:40.232Z,40.45
2019-06-27T13:05:08.411Z,40.63
2019-06-27T13:07:35.940Z,40.94
2019-06-27T13:10:03.772Z,40.36
2019-06-27T13:12:31.294Z,40.79
2019-06-27T13:14:58.949Z,40.92
2019-06-27T13:17:26.967Z,40.96
2019-06-27T13:19:54.616Z,40.84
2019-06-27T13:22:22.138Z,40.91
2019-06-27T13:24:49.759Z,39.97
2019-06-27T13:27:17.309Z,40.10
2019-06-27T13:29:45.111Z,40.30
2019-06-27T13:32:13.237Z,40.39
2019-06-27T13:34:41.360Z,40.57
2019-06-27T13:37:09.066Z,40.41
2019-06-27T13:39:36.782Z,40.29
2019-06-27T13:42:04.405Z,40.38
2019-06-27T13:44:31.934Z,39.93
2019-06-27T13:46:59.509Z,39.93
2019-06-27T13:49:27.030Z,39.54
2019-06-27T13:51:54.772Z,39.51
2019-06-27T13:54:22.358Z,39.19
2019-06-27T13:56:49.984Z,38.77
2019-06-27T13:59:17.645Z,38.76
2019-06-27T14:01:45.234Z,38.59
2019-06-27T14:04:12.832Z,38.66
2019-06-27T14:06:41.468Z,38.67
2019-06-27T14:09:21.949Z,38.26
2019-06-27T14:11:39.026Z,37.96
2019-06-27T14:14:06.735Z,36.67
2019-06-27T14:16:34.425Z,35.91
2019-06-27T14:19:02.149Z,35.10
2019-06-27T14:21:29.704Z,34.40
2019-06-27T14:23:57.440Z,34.13
2019-06-27T14:26:25.384Z,33.66
2019-06-27T14:28:53.113Z,33.38
2019-06-27T14:31:20.676Z,33.07
2019-06-27T14:33:48.347Z,32.83
2019-06-27T14:36:15.990Z,32.78
2019-06-27T14:38:43.641Z,32.79
2019-06-27T14:41:11.209Z,32.71
2019-06-27T14:43:38.937Z,32.44
2019-06-27T14:46:06.552Z,32.26
2019-06-27T14:48:34.472Z,31.92
2019-06-27T14:51:02.122Z,32.32
2019-06-27T14:53:29.794Z,32.43
2019-06-27T14:55:57.489Z,32.64
2019-06-27T14:58:25.165Z,32.55
2019-06-27T15:00:52.714Z,32.45
2019-06-27T15:03:20.394Z,32.37
2019-06-27T15:05:48.002Z,32.29
2019-06-27T15:08:15.687Z,32.26
2019-06-27T15:10:43.247Z,32.30
2019-06-27T15:13:10.844Z,32.33
2019-06-27T15:15:38.394Z,32.51
2019-06-27T15:18:05.960Z,32.47
2019-06-27T15:20:33.689Z,32.41
2019-06-27T15:23:01.351Z,32.24
2019-06-27T15:25:28.940Z,32.24
2019-06-27T15:27:56.696Z,32.32
2019-06-27T15:30:24.173Z,32.29
2019-06-27T15:32:51.797Z,32.24
2019-06-27T15:35:19.271Z,32.29
2019-06-27T15:37:46.837Z,32.23
2019-06-27T15:40:14.687Z,32.15
2019-06-27T15:42:42.682Z,32.16
2019-06-27T15:45:10.673Z,32.27
2019-06-27T15:47:38.342Z,32.19
2019-06-27T15:50:06.301Z,31.98
2019-06-27T15:52:34.049Z,31.58
2019-06-27T15:55:01.591Z,31.23
2019-06-27T15:57:29.211Z,31.17
2019-06-27T15:59:56.819Z,31.15
2019-06-27T16:02:24.364Z,31.30
2019-06-27T16:04:51.908Z,31.45
2019-06-27T16:07:19.656Z,31.61
2019-06-27T16:09:47.271Z,31.53
2019-06-27T16:12:14.896Z,31.32
2019-06-27T16:14:42.455Z,31.16
2019-06-27T16:17:10.081Z,31.02
2019-06-27T16:19:37.682Z,31.03
2019-06-27T16:22:05.331Z,30.94
2019-06-27T16:24:32.882Z,30.90
2019-06-27T16:27:00.567Z,30.97
2019-06-27T16:29:28.358Z,30.95
2019-06-27T16:31:55.952Z,30.97
2019-06-27T16:34:28.717Z,30.98
2019-06-27T16:36:54.582Z,30.90
2019-06-27T16:39:22.225Z,30.64
2019-06-27T16:41:49.815Z,30.79
2019-06-27T16:44:19.028Z,31.04
2019-06-27T16:46:46.592Z,31.50
2019-06-27T16:49:14.234Z,31.65
2019-06-27T16:51:41.845Z,31.33
2019-06-27T16:54:09.459Z,31.12
2019-06-27T16:56:37.180Z,31.32
2019-06-27T16:59:04.950Z,31.29
2019-06-27T17:01:32.590Z,31.41
2019-06-27T17:04:00.256Z,31.21
2019-06-27T17:06:40.904Z,31.27
2019-06-27T17:08:57.400Z,31.40
2019-06-27T17:11:24.988Z,30.98
2019-06-27T17:13:52.614Z,30.45
2019-06-27T17:16:22.382Z,30.36
2019-06-27T17:18:50.064Z,30.42
2019-06-27T17:21:17.779Z,29.92
2019-06-27T17:23:45.491Z,29.67
2019-06-27T17:26:13.105Z,29.90
2019-06-27T17:28:40.872Z,30.06
2019-06-27T17:31:08.473Z,30.08
2019-06-27T17:33:36.051Z,30.17
2019-06-27T17:36:03.685Z,30.29
2019-06-27T17:38:31.376Z,30.48
2019-06-27T17:40:58.928Z,30.57
2019-06-27T17:43:26.516Z,30.49
2019-06-27T17:45:54.109Z,30.20
2019-06-27T17:48:21.697Z,30.08
2019-06-27T17:50:49.382Z,30.12
2019-06-27T17:53:16.925Z,30.25
2019-06-27T17:55:44.504Z,30.24
2019-06-27T17:58:12.074Z,30.16
2019-06-27T18:00:39.914Z,30.31
2019-06-27T18:03:07.482Z,30.13
2019-06-27T18:05:35.138Z,30.13
2019-06-27T18:08:02.735Z,30.01
2019-06-27T18:10:30.356Z,29.66
2019-06-27T18:12:58.308Z,29.85
2019-06-27T18:15:25.901Z,29.68
2019-06-27T18:17:53.536Z,29.94
2019-06-27T18:20:21.222Z,30.19
2019-06-27T18:22:49.065Z,30.06
2019-06-27T18:25:16.723Z,30.24
2019-06-27T18:27:44.341Z,30.16
2019-06-27T18:30:12.466Z,30.22
2019-06-27T18:32:40.794Z,30.15
2019-06-27T18:35:09.027Z,30.36
2019-06-27T18:37:36.676Z,30.62
2019-06-27T18:40:04.791Z,30.07
2019-06-27T18:42:32.924Z,30.04
2019-06-27T18:45:00.983Z,29.90
2019-06-27T18:47:29.112Z,29.39
2019-06-27T18:49:57.333Z,29.15
2019-06-27T18:52:25.728Z,29.07
2019-06-27T18:54:53.596Z,28.75
2019-06-27T18:57:22.317Z,29.10
2019-06-27T18:59:53.428Z,29.17
2019-06-27T19:02:19.990Z,29.03
2019-06-27T19:04:47.818Z,29.38
2019-06-27T19:07:15.832Z,29.15
2019-06-27T19:09:43.653Z,28.97
2019-06-27T19:12:11.801Z,28.75
2019-06-27T19:14:40.302Z,28.46
2019-06-27T19:17:08.352Z,28.34
2019-06-27T19:19:38.006Z,28.32
2019-06-27T19:22:25.657Z,28.31
2019-06-27T19:24:58.290Z,28.29
2019-06-27T19:27:26.858Z,28.06
2019-06-27T19:29:54.859Z,28.00
2019-06-27T19:32:22.956Z,28.18
2019-06-27T19:34:51.054Z,28.03
2019-06-27T19:37:19.019Z,27.97
2019-06-27T19:39:47.447Z,28.07
2019-06-27T19:42:15.766Z,27.88
2019-06-27T19:44:43.539Z,27.89
2019-06-27T19:47:11.204Z,27.93
2019-06-27T19:49:38.891Z,27.78
2019-06-27T19:52:06.546Z,27.65
2019-06-27T19:54:34.533Z,27.91
2019-06-27T19:57:02.222Z,27.86
2019-06-27T19:59:29.840Z,28.06
2019-06-27T20:01:57.535Z,28.18
2019-06-27T20:04:25.762Z,28.01
2019-06-27T20:06:53.780Z,27.84
2019-06-27T20:09:21.978Z,27.79
2019-06-27T20:11:51.333Z,27.85
2019-06-27T20:14:18.916Z,28.37
2019-06-27T20:16:46.776Z,27.95
2019-06-27T20:19:14.495Z,27.71
2019-06-27T20:21:42.096Z,27.40
2019-06-27T20:24:09.697Z,27.11
2019-06-27T20:26:37.414Z,27.08
2019-06-27T20:29:05.057Z,27.27
2019-06-27T20:31:32.558Z,26.97
2019-06-27T20:34:00.167Z,26.96
2019-06-27T20:36:27.833Z,26.87
2019-06-27T20:38:55.493Z,26.96
2019-06-27T20:41:23.142Z,27.11
2019-06-27T20:43:50.688Z,26.97
2019-06-27T20:46:18.284Z,26.91
2019-06-27T20:48:45.834Z,26.72
2019-06-27T20:51:13.386Z,26.85
2019-06-27T20:53:40.995Z,26.89
2019-06-27T20:56:09.534Z,26.85
2019-06-27T20:58:37.099Z,26.80
2019-06-27T21:01:04.768Z,26.82
2019-06-27T21:03:32.329Z,26.94
2019-06-27T21:06:00.771Z,26.84
2019-06-27T21:08:28.390Z,26.71
2019-06-27T21:10:55.954Z,26.64
2019-06-27T21:13:23.523Z,26.74
2019-06-27T21:15:51.140Z,26.60
2019-06-27T21:18:18.692Z,26.58
2019-06-27T21:20:46.311Z,26.32
2019-06-27T21:23:14.890Z,26.42
2019-06-27T21:25:42.495Z,26.69
2019-06-27T21:28:10.385Z,27.07
2019-06-27T21:30:38.022Z,26.90
2019-06-27T21:33:05.609Z,26.81
2019-06-27T21:35:34.001Z,26.94
2019-06-27T21:38:02.649Z,26.79
2019-06-27T21:40:30.347Z,26.63
2019-06-27T21:42:57.961Z,26.49
2019-06-27T21:45:25.655Z,26.55
2019-06-27T21:47:53.461Z,26.46
2019-06-27T21:50:21.139Z,26.43
2019-06-27T21:52:48.633Z,26.45
2019-06-27T21:55:16.317Z,26.42
2019-06-27T21:57:43.901Z,26.23
2019-06-27T22:00:11.696Z,25.85
2019-06-27T22:02:41.253Z,26.21
2019-06-27T22:05:09.013Z,26.07
2019-06-27T22:07:36.652Z,25.93
2019-06-27T22:10:05.729Z,25.65
2019-06-27T22:12:34.629Z,25.75
2019-06-27T22:15:02.304Z,25.92
2019-06-27T22:17:31.094Z,26.00
2019-06-27T22:20:14.019Z,26.24
2019-06-27T22:22:28.341Z,26.22
2019-06-27T22:24:55.998Z,26.16
2019-06-27T22:27:23.658Z,26.02
2019-06-27T22:29:51.269Z,26.25
2019-06-27T22:32:18.866Z,26.28
2019-06-27T22:34:46.895Z,26.34
2019-06-27T22:37:23.568Z,26.08
2019-06-27T22:40:11.212Z,25.80
2019-06-27T22:42:57.824Z,25.80
2019-06-27T22:45:43.629Z,25.37
2019-06-27T22:48:14.258Z,25.73
2019-06-27T22:51:05.860Z,25.72
2019-06-27T22:53:38.851Z,25.98
2019-06-27T22:56:06.984Z,26.13
2019-06-27T22:58:34.488Z,25.82
2019-06-27T23:01:03.944Z,25.77
2019-06-27T23:03:31.470Z,25.63
2019-06-27T23:05:59.115Z,25.71
2019-06-27T23:08:26.637Z,25.76
2019-06-27T23:10:54.697Z,25.65
2019-06-27T23:13:22.211Z,25.69
2019-06-27T23:15:49.959Z,25.49
2019-06-27T23:18:17.482Z,25.53
2019-06-27T23:20:45.067Z,25.97
2019-06-27T23:23:12.573Z,25.87
2019-06-27T23:25:40.184Z,25.88
2019-06-27T23:28:07.720Z,25.65
2019-06-27T23:30:35.378Z,25.41
2019-06-27T23:33:03.097Z,25.31
2019-06-27T23:35:30.752Z,25.33
2019-06-27T23:37:58.338Z,25.20
2019-06-27T23:40:25.953Z,25.27
2019-06-27T23:42:53.590Z,25.14
2019-06-27T23:45:21.619Z,25.19
2019-06-27T23:47:49.544Z,25.23
2019-06-27T23:50:17.477Z,25.07
2019-06-27T23:52:46.366Z,25.00
2019-06-27T23:55:14.438Z,25.04
2019-06-27T23:57:42.368Z,24.98
